Time;durP1;ratioP1;P1;durP2;ratioP2;P2;SDS_P1;SDS_P2;PMS_P1;PMS_P2;Temp;Humidity;BMP_temperature;BMP_pressure;BME280_temperature;BME280_humidity;BME280_pressure;Samples;Min_cycle;Max_cycle;Signal;HPM_P1;HPM_P2
2022/10/13 00:01:45;;;;;;;;;;;8.70;99.90;;;;;;5070470;28;19952;-67
2022/10/13 00:04:11;;;;;;;;;;;8.70;99.90;;;;;;5051225;28;19920;-68
2022/10/13 00:06:36;;;;;;;;;;;8.70;99.90;;;;;;5052187;28;20011;-67
2022/10/13 00:09:02;;;;;;;;;;;8.70;99.90;;;;;;5052496;28;19925;-67
2022/10/13 00:11:29;;;;;;;;;;;8.70;99.90;;;;;;5048315;28;19975;-67
2022/10/13 00:13:55;;;;;;;;;;;8.70;99.90;;;;;;5051104;28;19931;-67
2022/10/13 00:16:21;;;;;;;;;;;8.70;99.90;;;;;;5069460;28;19931;-67
2022/10/13 00:18:47;;;;;;;;;;;8.70;99.90;;;;;;5048714;28;20395;-67
2022/10/13 00:21:14;;;;;;;;;;;8.70;99.90;;;;;;5052645;28;19924;-66
2022/10/13 00:23:39;;;;;;;;;;;8.80;99.90;;;;;;5049717;28;19929;-67
2022/10/13 00:26:05;;;;;;;;;;;8.80;99.90;;;;;;5047867;28;19993;-68
2022/10/13 00:28:32;;;;;;;;;;;8.80;99.90;;;;;;5049621;28;19925;-66
2022/10/13 00:30:57;;;;;;;;;;;8.80;99.90;;;;;;5049801;28;19927;-66
2022/10/13 00:33:23;;;;;;;;;;;8.80;99.90;;;;;;5069992;28;20628;-66
2022/10/13 00:35:48;;;;;;;;;;;8.80;99.90;;;;;;5051812;28;20011;-67
2022/10/13 00:38:18;;;;;;;;;;;8.80;99.90;;;;;;5053399;28;19935;-67
2022/10/13 00:40:47;;;;;;;;;;;8.80;99.90;;;;;;5032338;28;19971;-67
2022/10/13 00:43:16;;;;;;;;;;;8.80;99.90;;;;;;5070157;28;20344;-66
2022/10/13 00:45:42;;;;;;;;;;;8.80;99.90;;;;;;5048023;28;19921;-66
2022/10/13 00:48:08;;;;;;;;;;;8.80;99.90;;;;;;5052171;28;19928;-66
2022/10/13 00:50:38;;;;;;;;;;;8.80;99.90;;;;;;5050642;28;20377;-66
2022/10/13 00:53:05;;;;;;;;;;;8.80;99.90;;;;;;5050753;28;20305;-66
2022/10/13 00:55:31;;;;;;;;;;;8.80;99.90;;;;;;5033236;28;19975;-67
2022/10/13 00:58:00;;;;;;;;;;;8.80;99.90;;;;;;5032945;28;19920;-67
2022/10/13 01:00:26;;;;;;;;;;;8.80;99.90;;;;;;5050320;28;19928;-67
2022/10/13 01:02:52;;;;;;;;;;;8.80;99.90;;;;;;5052175;28;19921;-67
2022/10/13 01:05:18;;;;;;;;;;;8.80;99.90;;;;;;5052954;28;20432;-67
2022/10/13 01:07:47;;;;;;;;;;;8.80;99.90;;;;;;5051087;28;19928;-67
2022/10/13 01:10:24;;;;;;;;;;;8.80;99.90;;;;;;5068287;28;19924;-67
2022/10/13 01:12:56;;;;;;;;;;;8.80;99.90;;;;;;5035735;28;19920;-68
2022/10/13 01:15:45;;;;;;;;;;;8.80;99.90;;;;;;5049868;28;19947;-67
2022/10/13 01:18:20;;;;;;;;;;;8.80;99.90;;;;;;5052016;28;19955;-67
2022/10/13 01:20:55;;;;;;;;;;;8.80;99.90;;;;;;5038800;28;19928;-68
2022/10/13 01:23:39;;;;;;;;;;;8.80;99.90;;;;;;5055240;28;19978;-67
2022/10/13 01:26:31;;;;;;;;;;;8.80;99.90;;;;;;5056126;28;19924;-68
2022/10/13 01:29:16;;;;;;;;;;;8.80;99.90;;;;;;5046949;28;19944;-68
2022/10/13 01:31:41;;;;;;;;;;;8.90;99.90;;;;;;5056389;28;19936;-68
2022/10/13 01:34:17;;;;;;;;;;;8.90;99.90;;;;;;5038183;28;19928;-69
2022/10/13 01:36:54;;;;;;;;;;;8.90;99.90;;;;;;5057422;28;19927;-67
2022/10/13 01:39:27;;;;;;;;;;;8.90;99.90;;;;;;5031769;28;19921;-68
2022/10/13 01:41:55;;;;;;;;;;;8.90;99.90;;;;;;5054421;28;19920;-68
2022/10/13 01:44:33;;;;;;;;;;;8.90;99.90;;;;;;5039870;28;19927;-68
2022/10/13 01:46:59;;;;;;;;;;;8.90;99.90;;;;;;5056419;28;19924;-68
2022/10/13 01:49:30;;;;;;;;;;;8.90;99.90;;;;;;5052327;28;20075;-68
2022/10/13 01:52:00;;;;;;;;;;;8.90;99.90;;;;;;5053028;28;20269;-67
2022/10/13 01:54:25;;;;;;;;;;;8.90;99.90;;;;;;5050740;28;19975;-68
2022/10/13 01:56:54;;;;;;;;;;;9.00;99.90;;;;;;5054817;28;20372;-68
2022/10/13 01:59:21;;;;;;;;;;;8.90;99.90;;;;;;5064740;28;20374;-68
2022/10/13 02:01:54;;;;;;;;;;;9.00;99.90;;;;;;5051124;28;19925;-68
2022/10/13 02:04:24;;;;;;;;;;;9.00;99.90;;;;;;5052639;28;19924;-67
2022/10/13 02:07:01;;;;;;;;;;;9.00;99.90;;;;;;5052695;28;19920;-68
2022/10/13 02:09:30;;;;;;;;;;;9.00;99.90;;;;;;5047101;28;19943;-68
2022/10/13 02:12:03;;;;;;;;;;;9.00;99.90;;;;;;5053308;28;19924;-68
2022/10/13 02:14:31;;;;;;;;;;;9.00;99.90;;;;;;5037113;28;20274;-67
2022/10/13 02:16:58;;;;;;;;;;;9.00;99.90;;;;;;5047709;28;19927;-68
2022/10/13 02:19:25;;;;;;;;;;;9.00;99.90;;;;;;5050094;28;19973;-67
2022/10/13 02:21:52;;;;;;;;;;;9.00;99.90;;;;;;5056125;28;20281;-67
2022/10/13 02:24:17;;;;;;;;;;;9.00;99.90;;;;;;5052045;28;19931;-67
2022/10/13 02:26:43;;;;;;;;;;;9.00;99.90;;;;;;5052331;28;19920;-68
2022/10/13 02:29:09;;;;;;;;;;;9.00;99.90;;;;;;5053160;28;19925;-67
2022/10/13 02:31:35;;;;;;;;;;;9.00;99.90;;;;;;5049333;28;20035;-67
2022/10/13 02:34:00;;;;;;;;;;;9.00;99.90;;;;;;5037484;28;20437;-68
2022/10/13 02:36:25;;;;;;;;;;;9.00;99.90;;;;;;5070340;28;19920;-67
2022/10/13 02:38:51;;;;;;;;;;;9.00;99.90;;;;;;5055316;28;19941;-68
2022/10/13 02:41:16;;;;;;;;;;;9.00;99.90;;;;;;5054314;28;19927;-68
2022/10/13 02:43:42;;;;;;;;;;;9.00;99.90;;;;;;5055033;28;19974;-68
2022/10/13 02:46:07;;;;;;;;;;;8.90;99.90;;;;;;5053542;28;20012;-68
2022/10/13 02:48:33;;;;;;;;;;;9.00;99.90;;;;;;5036232;28;19974;-67
2022/10/13 02:50:58;;;;;;;;;;;8.90;99.90;;;;;;5073171;28;19982;-67
2022/10/13 02:53:24;;;;;;;;;;;8.90;99.90;;;;;;5054050;28;19974;-69
2022/10/13 02:55:49;;;;;;;;;;;8.90;99.90;;;;;;5053919;28;20011;-68
2022/10/13 02:58:14;;;;;;;;;;;8.90;99.90;;;;;;5056030;28;19931;-68
2022/10/13 03:00:40;;;;;;;;;;;8.90;99.90;;;;;;5053824;28;19974;-68
2022/10/13 03:03:06;;;;;;;;;;;8.90;99.90;;;;;;5052609;28;20010;-67
2022/10/13 03:05:31;;;;;;;;;;;8.90;99.90;;;;;;5051532;28;19920;-67
2022/10/13 03:07:57;;;;;;;;;;;8.90;99.90;;;;;;5054877;28;19920;-68
2022/10/13 03:10:22;;;;;;;;;;;9.00;99.90;;;;;;5050848;28;19986;-67
2022/10/13 03:12:48;;;;;;;;;;;9.00;99.90;;;;;;5071569;28;20369;-67
2022/10/13 03:15:13;;;;;;;;;;;9.00;99.90;;;;;;5035913;28;19924;-68
2022/10/13 03:17:38;;;;;;;;;;;9.00;99.90;;;;;;5054560;28;19925;-68
2022/10/13 03:20:05;;;;;;;;;;;9.00;99.90;;;;;;5050336;28;19947;-68
2022/10/13 03:22:31;;;;;;;;;;;9.00;99.90;;;;;;5070043;28;19956;-69
2022/10/13 03:24:56;;;;;;;;;;;9.10;99.90;;;;;;5054789;28;19967;-68
2022/10/13 03:27:22;;;;;;;;;;;9.10;99.90;;;;;;5070519;28;19990;-69
2022/10/13 03:29:47;;;;;;;;;;;9.10;99.90;;;;;;5053783;28;20022;-68
2022/10/13 03:32:13;;;;;;;;;;;9.10;99.90;;;;;;5054728;28;19946;-68
2022/10/13 03:34:38;;;;;;;;;;;9.10;99.90;;;;;;5048095;28;19927;-68
2022/10/13 03:37:04;;;;;;;;;;;9.10;99.90;;;;;;5050148;28;20390;-69
2022/10/13 03:39:29;;;;;;;;;;;9.10;99.90;;;;;;5044888;28;19920;-68
2022/10/13 03:41:55;;;;;;;;;;;9.20;99.90;;;;;;5047133;28;20000;-67
2022/10/13 03:44:20;;;;;;;;;;;9.20;99.90;;;;;;5054040;28;19924;-67
2022/10/13 03:46:46;;;;;;;;;;;9.20;99.90;;;;;;5052174;28;19932;-67
2022/10/13 03:49:11;;;;;;;;;;;9.30;99.90;;;;;;5054641;28;20288;-67
2022/10/13 03:51:37;;;;;;;;;;;9.30;99.90;;;;;;5051634;28;19924;-67
2022/10/13 03:54:02;;;;;;;;;;;9.30;99.90;;;;;;5054060;28;19928;-67
2022/10/13 03:56:28;;;;;;;;;;;9.30;99.90;;;;;;5053000;28;19946;-67
2022/10/13 03:58:54;;;;;;;;;;;9.30;99.90;;;;;;5032522;28;19931;-67
2022/10/13 04:01:21;;;;;;;;;;;9.40;99.90;;;;;;5068690;28;20888;-68
2022/10/13 04:03:47;;;;;;;;;;;9.40;99.90;;;;;;5052400;28;19920;-67
2022/10/13 04:06:13;;;;;;;;;;;9.40;99.90;;;;;;5053309;28;19955;-68
2022/10/13 04:08:38;;;;;;;;;;;9.40;99.90;;;;;;5069455;28;19931;-67
2022/10/13 04:11:05;;;;;;;;;;;9.40;99.90;;;;;;5052795;28;20073;-68
2022/10/13 04:13:30;;;;;;;;;;;9.40;99.90;;;;;;5053100;28;19935;-69
2022/10/13 04:16:00;;;;;;;;;;;9.40;99.90;;;;;;5051660;28;19921;-67
2022/10/13 04:18:26;;;;;;;;;;;9.40;99.90;;;;;;5068978;28;19924;-67
2022/10/13 04:20:51;;;;;;;;;;;9.40;99.90;;;;;;5032816;28;19928;-68
2022/10/13 04:23:17;;;;;;;;;;;9.40;99.90;;;;;;5050303;28;19966;-68
2022/10/13 04:25:42;;;;;;;;;;;9.40;99.90;;;;;;5052299;28;20354;-68
2022/10/13 04:28:10;;;;;;;;;;;9.50;99.90;;;;;;5050412;28;19920;-68
2022/10/13 04:30:35;;;;;;;;;;;9.50;99.90;;;;;;5049126;28;19924;-68
2022/10/13 04:33:01;;;;;;;;;;;9.50;99.90;;;;;;5044228;28;20285;-68
2022/10/13 04:35:27;;;;;;;;;;;9.50;99.90;;;;;;5043623;28;20055;-68
2022/10/13 04:37:53;;;;;;;;;;;9.50;99.90;;;;;;5048508;28;20330;-68
2022/10/13 04:40:18;;;;;;;;;;;9.50;99.90;;;;;;5047885;28;20385;-68
2022/10/13 04:42:44;;;;;;;;;;;9.50;99.90;;;;;;5024278;28;19928;-68
2022/10/13 04:45:09;;;;;;;;;;;9.50;99.90;;;;;;5051711;28;19920;-68
2022/10/13 04:47:36;;;;;;;;;;;9.50;99.90;;;;;;5052404;28;19944;-68
2022/10/13 04:50:02;;;;;;;;;;;9.50;99.90;;;;;;5049614;28;19928;-68
2022/10/13 04:52:27;;;;;;;;;;;9.50;99.90;;;;;;5052701;28;19920;-68
2022/10/13 04:54:53;;;;;;;;;;;9.50;99.90;;;;;;5066956;28;22051;-68
2022/10/13 04:57:18;;;;;;;;;;;9.50;99.90;;;;;;5053148;28;19947;-68
2022/10/13 04:59:44;;;;;;;;;;;9.50;99.90;;;;;;5051984;28;20591;-68
2022/10/13 05:02:09;;;;;;;;;;;9.50;99.90;;;;;;5030028;28;19944;-68
2022/10/13 05:04:35;;;;;;;;;;;9.50;99.90;;;;;;5048029;28;19921;-68
2022/10/13 05:07:00;;;;;;;;;;;9.50;99.90;;;;;;5033378;28;20023;-68
2022/10/13 05:09:26;;;;;;;;;;;9.50;99.90;;;;;;5030041;28;19929;-69
2022/10/13 05:11:53;;;;;;;;;;;9.50;99.90;;;;;;5050338;28;19935;-69
2022/10/13 05:14:20;;;;;;;;;;;9.50;99.90;;;;;;5050713;28;19920;-68
2022/10/13 05:16:45;;;;;;;;;;;9.50;99.90;;;;;;5051239;28;19925;-68
2022/10/13 05:19:11;;;;;;;;;;;9.50;99.90;;;;;;5051649;28;20328;-68
2022/10/13 05:21:37;;;;;;;;;;;9.50;99.90;;;;;;5044139;28;19954;-68
2022/10/13 05:24:04;;;;;;;;;;;9.50;99.90;;;;;;5045059;28;19935;-68
2022/10/13 05:26:32;;;;;;;;;;;9.50;99.90;;;;;;5043425;28;19927;-68
2022/10/13 05:28:58;;;;;;;;;;;9.50;99.90;;;;;;5042531;28;19967;-68
2022/10/13 05:31:25;;;;;;;;;;;9.50;99.90;;;;;;5070606;28;19924;-68
2022/10/13 05:33:51;;;;;;;;;;;9.50;99.90;;;;;;5049942;28;20376;-67
2022/10/13 05:36:18;;;;;;;;;;;9.50;99.90;;;;;;5052222;28;19995;-68
2022/10/13 05:38:44;;;;;;;;;;;9.50;99.90;;;;;;5048898;28;19924;-68
2022/10/13 05:41:11;;;;;;;;;;;9.60;99.90;;;;;;5050417;28;19928;-68
2022/10/13 05:43:37;;;;;;;;;;;9.50;99.90;;;;;;5066386;28;20009;-68
2022/10/13 05:46:03;;;;;;;;;;;9.50;99.90;;;;;;5050431;28;19927;-68
2022/10/13 05:48:29;;;;;;;;;;;9.50;99.90;;;;;;5050056;28;19921;-68
2022/10/13 05:50:55;;;;;;;;;;;9.60;99.90;;;;;;5052291;28;19929;-67
2022/10/13 05:53:21;;;;;;;;;;;9.60;99.90;;;;;;5033026;28;19928;-68
2022/10/13 05:55:47;;;;;;;;;;;9.60;99.90;;;;;;5047231;28;19921;-68
2022/10/13 05:58:13;;;;;;;;;;;9.60;99.90;;;;;;5042496;28;19925;-68
2022/10/13 06:00:40;;;;;;;;;;;9.60;99.90;;;;;;5043539;28;19966;-68
2022/10/13 06:03:07;;;;;;;;;;;9.60;99.90;;;;;;5052752;28;19974;-67
2022/10/13 06:05:32;;;;;;;;;;;9.60;99.90;;;;;;5054928;28;19920;-67
2022/10/13 06:07:58;;;;;;;;;;;9.60;99.90;;;;;;5073974;28;20381;-68
2022/10/13 06:10:24;;;;;;;;;;;9.60;99.90;;;;;;5073501;28;20472;-68
2022/10/13 06:12:50;;;;;;;;;;;9.70;99.90;;;;;;5073983;28;19924;-68
2022/10/13 06:15:15;;;;;;;;;;;9.70;99.90;;;;;;5054886;28;19943;-68
2022/10/13 06:17:41;;;;;;;;;;;9.70;99.90;;;;;;5054510;28;19927;-68
2022/10/13 06:20:07;;;;;;;;;;;9.70;99.90;;;;;;5054265;28;19981;-68
2022/10/13 06:22:33;;;;;;;;;;;9.80;99.90;;;;;;5034027;28;20019;-67
2022/10/13 06:24:58;;;;;;;;;;;9.80;99.90;;;;;;5045626;28;19924;-68
2022/10/13 06:27:24;;;;;;;;;;;9.80;99.90;;;;;;5047250;28;20012;-68
2022/10/13 06:29:49;;;;;;;;;;;9.90;99.90;;;;;;5048619;28;19929;-68
2022/10/13 06:32:15;;;;;;;;;;;9.80;99.90;;;;;;5050354;28;19920;-68
2022/10/13 06:34:40;;;;;;;;;;;9.90;99.90;;;;;;5046943;28;19963;-68
2022/10/13 06:37:06;;;;;;;;;;;9.90;99.90;;;;;;5052357;28;20039;-68
2022/10/13 06:39:31;;;;;;;;;;;9.90;99.90;;;;;;5051748;28;19921;-68
2022/10/13 06:41:57;;;;;;;;;;;9.90;99.90;;;;;;5046147;28;20390;-68
2022/10/13 06:44:22;;;;;;;;;;;10.00;99.90;;;;;;5047548;28;19921;-68
2022/10/13 06:46:48;;;;;;;;;;;10.00;99.90;;;;;;5047175;28;19925;-67
2022/10/13 06:49:13;;;;;;;;;;;10.00;99.90;;;;;;5051104;28;19929;-68
2022/10/13 06:51:39;;;;;;;;;;;10.00;99.90;;;;;;5030781;28;20410;-68
2022/10/13 06:54:04;;;;;;;;;;;10.10;99.90;;;;;;5052025;28;19925;-68
2022/10/13 06:56:30;;;;;;;;;;;10.10;99.90;;;;;;5051652;28;20011;-68
2022/10/13 06:58:55;;;;;;;;;;;10.10;99.90;;;;;;5044424;28;19975;-68
2022/10/13 07:01:20;;;;;;;;;;;10.20;99.90;;;;;;5050868;28;19924;-68
2022/10/13 07:03:49;;;;;;;;;;;10.20;99.90;;;;;;5051402;28;19921;-67
2022/10/13 07:06:15;;;;;;;;;;;10.30;99.90;;;;;;5047105;28;19925;-69
2022/10/13 07:08:41;;;;;;;;;;;10.30;99.90;;;;;;5049228;28;19928;-68
2022/10/13 07:11:12;;;;;;;;;;;10.40;99.90;;;;;;5049208;28;19985;-68
2022/10/13 07:13:37;;;;;;;;;;;10.40;99.90;;;;;;5046199;28;19925;-68
2022/10/13 07:16:04;;;;;;;;;;;10.50;99.90;;;;;;5050557;28;19928;-68
2022/10/13 07:18:29;;;;;;;;;;;10.50;99.90;;;;;;5050993;28;19921;-68
2022/10/13 07:20:56;;;;;;;;;;;10.50;99.90;;;;;;5051626;28;19995;-68
2022/10/13 07:23:21;;;;;;;;;;;10.50;99.90;;;;;;5054183;28;19935;-68
2022/10/13 07:25:47;;;;;;;;;;;10.60;99.90;;;;;;5047644;28;19947;-68
2022/10/13 07:28:12;;;;;;;;;;;10.60;99.90;;;;;;5052036;28;19977;-68
2022/10/13 07:30:39;;;;;;;;;;;10.60;99.90;;;;;;5052439;28;19932;-67
2022/10/13 07:33:04;;;;;;;;;;;10.60;99.90;;;;;;5037252;28;19924;-68
2022/10/13 07:35:30;;;;;;;;;;;10.60;99.90;;;;;;5054700;28;19931;-67
2022/10/13 07:37:55;;;;;;;;;;;10.60;99.90;;;;;;5050235;28;20405;-67
2022/10/13 07:40:20;;;;;;;;;;;10.60;99.90;;;;;;5033888;28;19928;-69
2022/10/13 07:42:46;;;;;;;;;;;10.70;99.90;;;;;;5036111;28;20001;-68
2022/10/13 07:45:11;;;;;;;;;;;10.80;99.90;;;;;;5053302;28;19920;-68
2022/10/13 07:47:37;;;;;;;;;;;10.80;99.90;;;;;;5051840;28;20281;-68
2022/10/13 07:50:03;;;;;;;;;;;10.90;99.90;;;;;;5049391;28;19924;-68
2022/10/13 07:52:28;;;;;;;;;;;11.00;99.90;;;;;;5069584;28;20382;-68
2022/10/13 07:54:54;;;;;;;;;;;11.10;99.90;;;;;;5050272;28;19935;-69
2022/10/13 07:57:19;;;;;;;;;;;11.20;99.90;;;;;;5051055;28;19947;-68
2022/10/13 07:59:45;;;;;;;;;;;11.30;99.90;;;;;;5051080;28;19927;-68
2022/10/13 08:02:10;;;;;;;;;;;11.30;99.90;;;;;;5030386;28;20389;-68
2022/10/13 08:04:36;;;;;;;;;;;11.40;99.90;;;;;;5047007;28;19974;-68
2022/10/13 08:07:02;;;;;;;;;;;11.40;99.90;;;;;;5044601;28;20362;-68
2022/10/13 08:09:27;;;;;;;;;;;11.50;99.90;;;;;;5053419;28;19925;-68
2022/10/13 08:11:53;;;;;;;;;;;11.60;99.90;;;;;;5053474;28;19975;-68
2022/10/13 08:14:18;;;;;;;;;;;11.70;99.90;;;;;;5052910;28;19931;-68
2022/10/13 08:16:44;;;;;;;;;;;11.80;99.90;;;;;;5053453;28;19985;-68
2022/10/13 08:19:11;;;;;;;;;;;11.90;99.90;;;;;;5059016;28;19924;-68
2022/10/13 08:21:37;;;;;;;;;;;12.00;99.90;;;;;;5022189;28;20536;-68
2022/10/13 08:24:04;;;;;;;;;;;12.10;99.90;;;;;;5030473;28;19931;-69
2022/10/13 08:26:29;;;;;;;;;;;12.20;99.90;;;;;;5045386;28;19921;-68
2022/10/13 08:28:55;;;;;;;;;;;12.30;99.90;;;;;;5044438;28;19983;-68
2022/10/13 08:31:20;;;;;;;;;;;12.30;99.90;;;;;;5044263;28;20310;-68
2022/10/13 08:33:46;;;;;;;;;;;12.30;99.90;;;;;;5029655;28;19952;-69
2022/10/13 08:36:13;;;;;;;;;;;12.30;99.90;;;;;;5071399;22;19919;-68
2022/10/13 08:38:38;;;;;;;;;;;12.30;99.90;;;;;;5081081;28;19925;-69
2022/10/13 08:41:11;;;;;;;;;;;12.40;99.90;;;;;;5069077;28;20229;-69
2022/10/13 08:43:36;;;;;;;;;;;12.40;99.90;;;;;;5076098;28;19927;-69
2022/10/13 08:46:02;;;;;;;;;;;12.40;99.90;;;;;;5056854;28;19921;-69
2022/10/13 08:48:31;;;;;;;;;;;12.40;99.90;;;;;;5070486;28;19965;-69
2022/10/13 08:50:58;;;;;;;;;;;12.50;99.90;;;;;;5069805;28;19929;-69
2022/10/13 08:53:34;;;;;;;;;;;12.50;99.90;;;;;;5068837;28;20014;-69
2022/10/13 08:56:03;;;;;;;;;;;12.50;99.90;;;;;;5070362;28;19973;-69
2022/10/13 08:58:31;;;;;;;;;;;12.50;99.90;;;;;;5071344;28;19921;-69
2022/10/13 09:01:01;;;;;;;;;;;12.50;99.90;;;;;;5071036;28;19921;-69
2022/10/13 09:03:28;;;;;;;;;;;12.50;99.90;;;;;;5065138;28;20316;-69
2022/10/13 09:06:09;;;;;;;;;;;12.60;99.90;;;;;;5065873;28;20362;-69
2022/10/13 09:09:01;;;;;;;;;;;12.60;99.90;;;;;;5053862;28;19931;-69
2022/10/13 09:11:32;;;;;;;;;;;12.60;99.90;;;;;;5063106;28;19925;-69
2022/10/13 09:13:59;;;;;;;;;;;12.70;99.90;;;;;;5052415;28;19928;-69
2022/10/13 09:16:39;;;;;;;;;;;12.80;99.90;;;;;;5070836;28;19924;-69
2022/10/13 09:19:23;;;;;;;;;;;12.90;99.90;;;;;;5070107;28;19921;-69
2022/10/13 09:21:49;;;;;;;;;;;12.90;99.90;;;;;;5065425;28;19974;-69
2022/10/13 09:24:16;;;;;;;;;;;12.90;99.90;;;;;;5071194;28;19955;-69
2022/10/13 09:26:43;;;;;;;;;;;12.90;99.90;;;;;;5053192;28;19920;-69
2022/10/13 09:29:10;;;;;;;;;;;12.90;99.90;;;;;;5069969;28;19925;-69
2022/10/13 09:31:36;;;;;;;;;;;13.00;99.90;;;;;;5071034;28;19978;-69
2022/10/13 09:34:10;;;;;;;;;;;13.00;99.90;;;;;;5087195;28;19928;-69
2022/10/13 09:36:36;;;;;;;;;;;13.00;99.90;;;;;;5070517;28;19935;-69
2022/10/13 09:39:07;;;;;;;;;;;13.00;99.90;;;;;;5069920;28;19928;-69
2022/10/13 09:41:33;;;;;;;;;;;13.10;99.90;;;;;;5072533;28;19963;-69
2022/10/13 09:44:02;;;;;;;;;;;13.10;99.90;;;;;;5074228;28;19940;-69
2022/10/13 09:46:30;;;;;;;;;;;13.10;99.90;;;;;;5073790;28;19944;-69
2022/10/13 09:49:01;;;;;;;;;;;13.10;99.90;;;;;;5072660;28;19932;-69
2022/10/13 09:51:36;;;;;;;;;;;13.10;99.90;;;;;;5072780;28;19966;-69
2022/10/13 09:54:02;;;;;;;;;;;13.20;99.90;;;;;;5070571;28;19928;-69
2022/10/13 09:56:27;;;;;;;;;;;13.20;99.90;;;;;;5075113;28;19920;-69
2022/10/13 09:59:06;;;;;;;;;;;13.20;99.90;;;;;;5074489;28;19920;-69
2022/10/13 10:01:33;;;;;;;;;;;13.10;99.90;;;;;;5073965;28;19921;-69
2022/10/13 10:04:02;;;;;;;;;;;13.10;99.90;;;;;;5073301;28;19995;-69
2022/10/13 10:06:28;;;;;;;;;;;13.00;99.90;;;;;;5073634;28;19920;-69
2022/10/13 10:08:53;;;;;;;;;;;13.10;99.90;;;;;;5073681;28;19932;-69
2022/10/13 10:11:23;;;;;;;;;;;13.10;99.90;;;;;;5071606;28;19980;-69
2022/10/13 10:13:51;;;;;;;;;;;13.10;99.90;;;;;;5072260;28;20281;-69
2022/10/13 10:16:21;;;;;;;;;;;13.10;99.90;;;;;;5072006;28;19924;-69
2022/10/13 10:18:57;;;;;;;;;;;13.10;99.90;;;;;;5058438;28;19927;-70
2022/10/13 10:21:42;;;;;;;;;;;13.10;99.90;;;;;;5070517;28;19928;-69
2022/10/13 10:24:25;;;;;;;;;;;13.10;99.90;;;;;;5069000;28;20289;-69
2022/10/13 10:26:56;;;;;;;;;;;13.00;99.90;;;;;;5070357;28;19920;-69
2022/10/13 10:29:40;;;;;;;;;;;13.00;99.90;;;;;;5070665;28;19924;-69
2022/10/13 10:32:09;;;;;;;;;;;13.10;99.90;;;;;;5088240;28;20283;-69
2022/10/13 10:34:36;;;;;;;;;;;13.00;99.90;;;;;;5073380;28;19924;-69
2022/10/13 10:37:13;;;;;;;;;;;13.00;99.90;;;;;;5071237;28;19924;-69
2022/10/13 10:39:45;;;;;;;;;;;13.00;99.90;;;;;;5069277;28;19925;-69
2022/10/13 10:42:31;;;;;;;;;;;13.00;99.90;;;;;;5074073;28;19921;-69
2022/10/13 10:44:59;;;;;;;;;;;13.00;99.90;;;;;;5068129;28;19921;-69
2022/10/13 10:47:40;;;;;;;;;;;13.00;99.90;;;;;;5071598;28;20154;-69
2022/10/13 10:50:06;;;;;;;;;;;13.10;99.90;;;;;;5068475;28;19929;-69
2022/10/13 10:52:42;;;;;;;;;;;13.00;99.90;;;;;;5069578;28;19920;-69
2022/10/13 10:55:08;;;;;;;;;;;13.00;99.90;;;;;;5075250;28;20258;-69
2022/10/13 10:57:39;;;;;;;;;;;13.00;99.90;;;;;;5072562;28;19925;-69
2022/10/13 11:00:09;;;;;;;;;;;13.00;99.90;;;;;;5072936;28;19932;-69
2022/10/13 11:02:53;;;;;;;;;;;13.00;99.90;;;;;;5053976;28;19978;-69
2022/10/13 11:05:19;;;;;;;;;;;13.10;99.90;;;;;;5070908;28;20017;-69
2022/10/13 11:07:45;;;;;;;;;;;13.10;99.90;;;;;;5073219;28;20447;-69
2022/10/13 11:10:16;;;;;;;;;;;13.10;99.90;;;;;;5060026;28;19924;-69
2022/10/13 11:12:46;;;;;;;;;;;13.20;99.90;;;;;;5070799;28;20318;-69
2022/10/13 11:15:15;;;;;;;;;;;13.10;99.90;;;;;;5072549;28;20341;-69
2022/10/13 11:17:40;;;;;;;;;;;13.20;99.90;;;;;;5075545;28;19931;-69
2022/10/13 11:20:18;;;;;;;;;;;13.20;99.90;;;;;;5073251;28;19921;-69
2022/10/13 11:23:10;;;;;;;;;;;13.30;99.90;;;;;;5056120;28;19920;-69
2022/10/13 11:25:36;;;;;;;;;;;13.30;99.90;;;;;;5049493;28;19935;-69
2022/10/13 11:28:20;;;;;;;;;;;13.40;99.90;;;;;;5054298;28;19924;-69
2022/10/13 11:30:56;;;;;;;;;;;13.40;99.90;;;;;;5072416;28;19928;-69
2022/10/13 11:33:36;;;;;;;;;;;13.40;99.90;;;;;;5074304;28;20416;-69
2022/10/13 11:36:21;;;;;;;;;;;13.40;99.90;;;;;;5069036;28;19928;-69
2022/10/13 11:38:50;;;;;;;;;;;13.40;99.90;;;;;;5073390;28;19973;-69
2022/10/13 11:41:23;;;;;;;;;;;13.40;99.90;;;;;;5053909;28;20053;-69
2022/10/13 11:43:57;;;;;;;;;;;13.30;99.90;;;;;;5070404;28;19920;-69
2022/10/13 11:46:24;;;;;;;;;;;13.40;99.90;;;;;;5069687;28;19921;-67
2022/10/13 11:49:09;;;;;;;;;;;13.30;99.90;;;;;;5053492;28;19921;-67
2022/10/13 11:51:55;;;;;;;;;;;13.30;99.90;;;;;;5065577;28;19971;-67
2022/10/13 11:54:25;;;;;;;;;;;13.30;99.90;;;;;;5060790;28;19966;-67
2022/10/13 11:56:52;;;;;;;;;;;13.30;99.90;;;;;;5070904;28;19963;-67
2022/10/13 11:59:19;;;;;;;;;;;13.40;99.90;;;;;;5072461;28;19924;-67
2022/10/13 12:01:44;;;;;;;;;;;13.50;99.90;;;;;;5070160;28;19927;-67
2022/10/13 12:04:13;;;;;;;;;;;13.50;99.90;;;;;;5070846;28;19920;-67
2022/10/13 12:06:40;;;;;;;;;;;13.50;99.90;;;;;;5067627;28;19928;-67
2022/10/13 12:09:16;;;;;;;;;;;13.60;99.90;;;;;;5069491;28;19924;-67
2022/10/13 12:11:42;;;;;;;;;;;13.70;99.90;;;;;;5072223;28;20335;-67
2022/10/13 12:14:18;;;;;;;;;;;13.70;99.90;;;;;;5070535;28;20480;-67
2022/10/13 12:16:57;;;;;;;;;;;13.80;99.90;;;;;;5070648;28;19927;-67
2022/10/13 12:19:24;;;;;;;;;;;13.80;99.90;;;;;;5086711;28;20324;-67
2022/10/13 12:21:51;;;;;;;;;;;14.00;99.90;;;;;;5068725;28;19921;-67
2022/10/13 12:24:20;;;;;;;;;;;13.90;99.90;;;;;;5072175;28;19975;-67
2022/10/13 12:26:45;;;;;;;;;;;14.00;99.90;;;;;;5071094;28;20357;-67
2022/10/13 12:29:12;;;;;;;;;;;14.00;99.90;;;;;;5068306;28;19928;-67
2022/10/13 12:31:48;;;;;;;;;;;14.10;99.90;;;;;;5068921;28;19920;-67
2022/10/13 12:34:16;;;;;;;;;;;14.10;99.90;;;;;;5070900;28;19935;-67
2022/10/13 12:36:43;;;;;;;;;;;14.10;99.90;;;;;;5071795;28;19924;-67
2022/10/13 12:39:11;;;;;;;;;;;14.10;99.90;;;;;;5069183;28;20623;-67
2022/10/13 12:41:39;;;;;;;;;;;14.10;99.90;;;;;;5053782;28;19920;-67
2022/10/13 12:44:06;;;;;;;;;;;14.20;99.90;;;;;;5051789;28;20415;-67
2022/10/13 12:46:36;;;;;;;;;;;14.10;99.90;;;;;;5071788;28;19921;-67
2022/10/13 12:49:21;;;;;;;;;;;14.10;99.90;;;;;;5069937;28;20043;-67
2022/10/13 12:51:48;;;;;;;;;;;14.10;99.90;;;;;;5061021;28;19921;-67
2022/10/13 12:54:28;;;;;;;;;;;14.00;99.90;;;;;;5076678;28;20522;-67
2022/10/13 12:56:55;;;;;;;;;;;14.00;99.90;;;;;;5069017;28;19921;-67
2022/10/13 12:59:22;;;;;;;;;;;14.00;99.90;;;;;;5065559;28;19966;-67
2022/10/13 13:01:59;;;;;;;;;;;14.00;99.90;;;;;;5068005;28;20412;-67
2022/10/13 13:04:29;;;;;;;;;;;14.00;99.90;;;;;;5070964;28;20677;-67
2022/10/13 13:06:58;;;;;;;;;;;14.00;99.90;;;;;;5068938;28;19925;-67
2022/10/13 13:09:23;;;;;;;;;;;13.90;99.90;;;;;;5068092;28;19924;-67
2022/10/13 13:12:02;;;;;;;;;;;14.00;99.90;;;;;;5067328;28;19932;-67
2022/10/13 13:14:46;;;;;;;;;;;13.90;99.90;;;;;;5071942;28;20093;-67
2022/10/13 13:17:13;;;;;;;;;;;13.90;99.90;;;;;;5073420;28;19924;-67
2022/10/13 13:19:39;;;;;;;;;;;13.90;99.90;;;;;;5076736;28;20340;-67
2022/10/13 13:22:05;;;;;;;;;;;13.90;99.90;;;;;;5075557;28;19924;-67
2022/10/13 13:24:32;;;;;;;;;;;13.90;99.90;;;;;;5076355;28;19924;-67
2022/10/13 13:26:57;;;;;;;;;;;13.90;99.90;;;;;;5074349;28;19927;-67
2022/10/13 13:29:23;;;;;;;;;;;13.90;99.90;;;;;;5075929;28;19928;-67
2022/10/13 13:31:49;;;;;;;;;;;13.90;99.90;;;;;;5075633;28;20333;-67
2022/10/13 13:34:14;;;;;;;;;;;13.90;99.90;;;;;;5077184;28;19942;-67
2022/10/13 13:36:40;;;;;;;;;;;13.90;99.90;;;;;;5076064;28;20019;-67
2022/10/13 13:39:12;;;;;;;;;;;14.00;99.90;;;;;;5076415;28;19931;-67
2022/10/13 13:41:37;;;;;;;;;;;14.00;99.90;;;;;;5075791;28;20271;-67
2022/10/13 13:44:03;;;;;;;;;;;14.10;99.90;;;;;;5076218;28;19927;-67
2022/10/13 13:46:30;;;;;;;;;;;14.10;99.90;;;;;;5075305;28;20297;-67
2022/10/13 13:48:56;;;;;;;;;;;14.10;99.90;;;;;;5076397;28;20304;-67
2022/10/13 13:51:22;;;;;;;;;;;14.20;99.90;;;;;;5076076;28;19920;-67
2022/10/13 13:53:47;;;;;;;;;;;14.20;99.90;;;;;;5076425;28;20019;-67
2022/10/13 13:56:13;;;;;;;;;;;14.30;99.90;;;;;;5059274;28;20403;-67
2022/10/13 13:58:39;;;;;;;;;;;14.30;99.90;;;;;;5074587;28;19931;-67
2022/10/13 14:01:04;;;;;;;;;;;14.40;99.90;;;;;;5058658;28;20382;-68
2022/10/13 14:03:30;;;;;;;;;;;14.40;99.90;;;;;;5075152;28;19938;-68
2022/10/13 14:05:55;;;;;;;;;;;14.40;99.90;;;;;;5075526;28;19928;-68
2022/10/13 14:08:21;;;;;;;;;;;14.40;99.90;;;;;;5077492;28;19959;-68
2022/10/13 14:10:46;;;;;;;;;;;14.40;99.90;;;;;;5075572;28;20425;-68
2022/10/13 14:13:11;;;;;;;;;;;14.50;99.90;;;;;;5060712;28;19927;-68
2022/10/13 14:15:37;;;;;;;;;;;14.50;99.90;;;;;;5071863;28;20003;-68
2022/10/13 14:18:02;;;;;;;;;;;14.50;99.90;;;;;;5073845;28;19921;-68
2022/10/13 14:20:28;;;;;;;;;;;14.50;99.90;;;;;;5075153;28;19935;-68
2022/10/13 14:22:53;;;;;;;;;;;14.60;99.90;;;;;;5077868;28;19920;-68
2022/10/13 14:25:19;;;;;;;;;;;14.50;99.90;;;;;;5076690;28;20066;-68
2022/10/13 14:27:44;;;;;;;;;;;14.50;99.90;;;;;;5074124;28;19973;-68
2022/10/13 14:30:10;;;;;;;;;;;14.50;99.90;;;;;;5075122;28;19931;-68